Time;durP1;ratioP1;P1;durP2;ratioP2;P2;SDS_P1;SDS_P2;PMS_P1;PMS_P2;Temp;Humidity;BMP_temperature;BMP_pressure;BME280_temperature;BME280_humidity;BME280_pressure;Samples;Min_cycle;Max_cycle;Signal;HPM_P1;HPM_P2
2022/11/08 00:01:43;;;;;;;8.45;7.65;;;6.40;99.90;;;;;;5073157;28;20190;-73
2022/11/08 00:04:10;;;;;;;8.98;8.07;;;6.40;99.90;;;;;;5076787;28;20183;-74
2022/11/08 00:14:51;;;;;;;13.70;8.48;;;6.40;99.90;;;;;;5062805;28;20186;-74
2022/11/08 00:17:17;;;;;;;13.98;8.85;;;6.40;99.90;;;;;;5064919;28;20241;-74
2022/11/08 00:19:44;;;;;;;16.10;8.77;;;6.40;99.90;;;;;;5063283;28;20184;-74
2022/11/08 00:22:10;;;;;;;8.02;7.22;;;6.50;99.90;;;;;;5065307;28;20262;-74
2022/11/08 00:24:36;;;;;;;16.42;8.95;;;6.50;99.90;;;;;;5067753;28;20184;-73
2022/11/08 00:27:04;;;;;;;29.45;9.40;;;6.50;99.90;;;;;;5068975;28;20215;-73
2022/11/08 00:29:29;;;;;;;34.58;9.48;;;6.50;99.90;;;;;;5063376;28;20218;-74
2022/11/08 00:31:55;;;;;;;21.05;9.07;;;6.50;99.90;;;;;;5072217;28;20206;-74
2022/11/08 00:34:21;;;;;;;13.70;6.85;;;6.60;99.90;;;;;;5069742;28;20182;-74
2022/11/08 00:36:46;;;;;;;11.32;8.10;;;6.60;99.90;;;;;;5067476;28;20203;-74
2022/11/08 00:39:12;;;;;;;8.05;7.10;;;6.50;99.90;;;;;;5056728;28;20183;-73
2022/11/08 00:41:38;;;;;;;15.20;8.38;;;6.50;99.90;;;;;;5060317;28;20182;-74
2022/11/08 00:44:03;;;;;;;7.50;6.82;;;6.50;99.90;;;;;;5062106;28;20350;-74
2022/11/08 00:46:29;;;;;;;7.18;6.57;;;6.50;99.90;;;;;;5067679;28;20225;-73
2022/11/08 00:48:55;;;;;;;7.90;7.20;;;6.50;99.90;;;;;;5062630;28;20172;-73
2022/11/08 00:51:20;;;;;;;9.52;7.53;;;6.50;99.90;;;;;;5077669;28;20187;-74
2022/11/08 00:53:46;;;;;;;11.70;7.85;;;6.50;99.90;;;;;;5070583;28;20533;-75
2022/11/08 00:56:12;;;;;;;12.68;8.35;;;6.50;99.90;;;;;;5063892;28;20179;-73
2022/11/08 00:58:40;;;;;;;10.40;7.32;;;6.40;99.90;;;;;;5066308;28;20202;-73
2022/11/08 01:01:17;;;;;;;23.80;8.27;;;6.40;99.90;;;;;;5071681;28;20187;-73
2022/11/08 01:03:43;;;;;;;15.25;8.40;;;6.40;99.90;;;;;;5068343;28;20645;-73
2022/11/08 01:06:11;;;;;;;10.35;6.68;;;6.40;99.90;;;;;;5074069;28;20219;-73
2022/11/08 01:08:37;;;;;;;33.55;8.98;;;6.40;99.90;;;;;;5075649;28;20191;-75
2022/11/08 01:11:06;;;;;;;17.15;7.55;;;6.30;99.90;;;;;;5077533;28;20508;-73
2022/11/08 01:13:32;;;;;;;21.73;7.70;;;6.40;99.90;;;;;;5074160;28;20175;-74
2022/11/08 01:16:04;;;;;;;9.15;7.22;;;6.30;99.90;;;;;;5071930;28;20266;-74
2022/11/08 01:18:29;;;;;;;7.18;6.47;;;6.30;99.90;;;;;;5074928;28;20209;-74
2022/11/08 01:20:55;;;;;;;6.97;6.25;;;6.30;99.90;;;;;;5079811;28;20653;-73
2022/11/08 01:23:20;;;;;;;7.47;6.78;;;6.40;99.90;;;;;;5071864;28;20188;-73
2022/11/08 01:25:47;;;;;;;8.50;6.72;;;6.40;99.90;;;;;;5074506;28;20701;-74
2022/11/08 01:28:13;;;;;;;14.30;6.68;;;6.40;99.90;;;;;;5075018;28;20827;-74
2022/11/08 01:30:41;;;;;;;7.50;6.22;;;6.40;99.90;;;;;;5081997;28;20187;-72
2022/11/08 01:33:08;;;;;;;15.38;7.47;;;6.40;99.90;;;;;;5076439;28;20183;-73
2022/11/08 01:35:34;;;;;;;10.10;6.05;;;6.40;99.90;;;;;;5081421;28;20201;-72
2022/11/08 01:38:01;;;;;;;12.70;6.45;;;6.40;99.90;;;;;;5075419;28;20198;-72
2022/11/08 01:40:28;;;;;;;19.80;6.85;;;6.40;99.90;;;;;;5077485;28;20185;-73
2022/11/08 01:42:54;;;;;;;9.48;7.00;;;6.50;99.90;;;;;;5070042;28;20171;-73
2022/11/08 01:46:11;;;;;;;17.95;7.65;;;6.40;99.90;;;;;;5062819;28;20199;-73
2022/11/08 01:48:40;;;;;;;14.93;6.65;;;6.40;99.90;;;;;;5045503;28;20222;-72
2022/11/08 01:51:09;;;;;;;9.73;6.43;;;6.30;99.90;;;;;;5072304;28;20207;-72
2022/11/08 01:53:35;;;;;;;6.95;6.25;;;6.40;99.90;;;;;;5076456;28;20187;-72
2022/11/08 01:56:01;;;;;;;10.38;6.38;;;6.40;99.90;;;;;;5078611;28;20283;-72
2022/11/08 01:58:31;;;;;;;17.73;7.68;;;6.40;99.90;;;;;;5080299;28;20230;-73
2022/11/08 02:01:00;;;;;;;8.38;6.80;;;6.30;99.90;;;;;;5083965;28;20189;-72
2022/11/08 02:03:27;;;;;;;18.52;7.38;;;6.30;99.90;;;;;;5077738;28;20175;-72
2022/11/08 02:05:53;;;;;;;10.45;7.22;;;6.30;99.90;;;;;;5077070;28;20203;-72
2022/11/08 02:08:33;;;;;;;12.60;7.82;;;6.30;99.90;;;;;;5080343;28;20201;-73
2022/11/08 02:11:00;;;;;;;10.00;7.40;;;6.20;99.90;;;;;;5078267;28;20216;-72
2022/11/08 02:13:28;;;;;;;9.98;7.00;;;6.20;99.90;;;;;;5070503;28;20189;-72
2022/11/08 02:15:54;;;;;;;10.38;6.75;;;6.10;99.90;;;;;;5079530;28;20300;-73
2022/11/08 02:18:21;;;;;;;8.18;7.38;;;6.10;99.90;;;;;;5071743;28;20673;-73
2022/11/08 02:21:08;;;;;;;11.88;8.15;;;6.10;99.90;;;;;;5078758;28;20191;-72
2022/11/08 02:23:53;;;;;;;10.00;7.88;;;6.20;99.90;;;;;;5068266;28;20200;-73
2022/11/08 02:26:23;;;;;;;11.32;7.45;;;6.10;99.90;;;;;;5073254;28;20592;-72
2022/11/08 02:28:49;;;;;;;10.15;7.47;;;6.10;99.90;;;;;;5068447;28;20195;-72
2022/11/08 02:31:17;;;;;;;10.93;7.43;;;6.20;99.90;;;;;;5063591;28;20240;-72
2022/11/08 02:33:44;;;;;;;11.88;7.57;;;6.20;99.90;;;;;;5061959;28;20184;-73
2022/11/08 02:36:14;;;;;;;6.80;6.10;;;6.20;99.90;;;;;;5071467;28;20190;-71
2022/11/08 02:38:43;;;;;;;14.50;6.97;;;6.30;99.90;;;;;;5067408;28;20213;-71
2022/11/08 02:41:09;;;;;;;7.30;6.20;;;6.20;99.90;;;;;;5073487;28;20190;-73
2022/11/08 02:43:34;;;;;;;7.28;6.63;;;6.20;99.90;;;;;;5061850;28;20656;-72
2022/11/08 02:46:00;;;;;;;8.90;6.45;;;6.20;99.90;;;;;;5066464;28;20288;-72
2022/11/08 02:48:26;;;;;;;10.60;6.85;;;6.20;99.90;;;;;;5067303;28;20195;-72
2022/11/08 02:50:51;;;;;;;8.18;6.72;;;6.20;99.90;;;;;;5068388;28;20179;-72
2022/11/08 02:53:18;;;;;;;7.85;6.82;;;6.10;99.90;;;;;;5067281;28;20754;-73
2022/11/08 02:55:43;;;;;;;7.05;6.10;;;6.20;99.90;;;;;;5070788;28;20206;-73
2022/11/08 02:58:10;;;;;;;6.78;6.13;;;6.20;99.90;;;;;;5070794;28;20689;-73
2022/11/08 03:00:36;;;;;;;7.97;7.13;;;6.10;99.90;;;;;;5069740;28;20183;-73
2022/11/08 03:03:01;;;;;;;12.32;8.48;;;6.10;99.90;;;;;;5076568;28;20719;-72
2022/11/08 03:05:28;;;;;;;10.30;7.75;;;6.10;99.90;;;;;;5063652;28;20671;-72
2022/11/08 03:07:54;;;;;;;12.48;7.07;;;6.00;99.90;;;;;;5066601;28;20739;-73
2022/11/08 03:13:42;;;;;;;13.25;7.43;;;6.00;99.90;;;;;;5060458;28;20575;-72
2022/11/08 03:16:08;;;;;;;9.43;8.50;;;6.00;99.90;;;;;;5076420;28;20176;-73
2022/11/08 03:18:33;;;;;;;8.73;7.88;;;6.00;99.90;;;;;;5062178;28;20605;-72
2022/11/08 03:21:02;;;;;;;13.95;8.13;;;5.90;99.90;;;;;;5074591;28;20260;-72
2022/11/08 03:23:28;;;;;;;14.20;8.65;;;6.00;99.90;;;;;;5075181;28;20178;-71
2022/11/08 03:25:53;;;;;;;9.63;8.63;;;5.90;99.90;;;;;;5070518;28;20213;-72
2022/11/08 03:28:19;;;;;;;14.15;8.52;;;5.90;99.90;;;;;;5074346;28;20283;-72
2022/11/08 03:30:45;;;;;;;10.20;7.75;;;5.90;99.90;;;;;;5074817;28;20250;-72
2022/11/08 03:33:10;;;;;;;12.85;8.25;;;5.90;99.90;;;;;;5071823;28;20261;-74
2022/11/08 03:35:36;;;;;;;11.85;8.98;;;6.00;99.90;;;;;;5073433;28;20174;-72
2022/11/08 03:38:01;;;;;;;10.73;8.57;;;5.90;99.90;;;;;;5072273;28;20195;-72
2022/11/08 03:40:27;;;;;;;16.75;9.32;;;5.90;99.90;;;;;;5071145;28;20171;-71
2022/11/08 03:42:56;;;;;;;26.25;9.43;;;5.90;99.90;;;;;;5067544;28;20700;-72
2022/11/08 03:45:22;;;;;;;14.13;9.93;;;5.90;99.90;;;;;;5064682;28;20197;-72
2022/11/08 03:47:47;;;;;;;12.10;9.02;;;5.90;99.90;;;;;;5068188;28;20210;-72
2022/11/08 03:50:14;;;;;;;10.40;8.98;;;5.90;99.90;;;;;;5073172;28;20174;-73
2022/11/08 03:52:48;;;;;;;12.13;8.38;;;6.00;99.90;;;;;;5066141;28;20191;-72
2022/11/08 03:55:15;;;;;;;8.85;7.95;;;6.00;99.90;;;;;;5068974;28;20227;-72
2022/11/08 03:57:43;;;;;;;16.80;9.82;;;6.00;99.90;;;;;;5064680;28;20196;-75
2022/11/08 04:00:11;;;;;;;12.60;9.00;;;6.00;99.90;;;;;;5074033;28;20203;-72
2022/11/08 04:02:36;;;;;;;20.58;8.45;;;6.10;99.90;;;;;;5076605;28;20709;-72
2022/11/08 04:05:02;;;;;;;10.35;8.50;;;6.10;99.90;;;;;;5066287;28;20183;-72
2022/11/08 04:07:28;;;;;;;16.35;9.43;;;6.10;99.90;;;;;;5074110;28;20198;-72
2022/11/08 04:09:56;;;;;;;39.65;9.75;;;6.10;99.90;;;;;;5064506;28;20179;-73
2022/11/08 04:15:16;;;;;;;31.13;10.18;;;6.20;99.90;;;;;;5063784;28;20835;-72
2022/11/08 04:23:17;;;;;;;33.72;9.93;;;6.30;99.90;;;;;;5070265;28;20231;-73
2022/11/08 04:25:44;;;;;;;12.73;8.15;;;6.30;99.90;;;;;;5061777;28;20257;-72
2022/11/08 04:28:10;;;;;;;25.70;8.45;;;6.30;99.90;;;;;;5065862;28;20211;-72
2022/11/08 04:30:36;;;;;;;28.77;9.25;;;6.30;99.90;;;;;;5074904;28;20258;-72
2022/11/08 04:33:03;;;;;;;17.23;8.65;;;6.30;99.90;;;;;;5073761;28;20184;-72
2022/11/08 04:35:30;;;;;;;19.98;8.90;;;6.30;99.90;;;;;;5070636;28;20634;-72
2022/11/08 04:38:02;;;;;;;38.20;8.40;;;6.30;99.90;;;;;;5072521;28;20191;-72
2022/11/08 04:40:29;;;;;;;9.40;7.30;;;6.30;99.90;;;;;;5074832;28;20176;-73
2022/11/08 04:42:55;;;;;;;22.63;8.27;;;6.40;99.90;;;;;;5076881;28;20699;-72
2022/11/08 04:45:21;;;;;;;25.75;7.63;;;6.30;99.90;;;;;;5066821;28;20198;-72
2022/11/08 04:47:47;;;;;;;19.35;7.75;;;6.30;99.90;;;;;;5066649;28;20294;-72
2022/11/08 04:50:14;;;;;;;8.48;7.68;;;6.30;99.90;;;;;;5071370;28;20190;-72
2022/11/08 04:52:41;;;;;;;7.95;7.22;;;6.40;99.90;;;;;;5067408;28;20191;-71
2022/11/08 04:55:07;;;;;;;18.65;8.68;;;6.30;99.90;;;;;;5069039;28;20180;-72
2022/11/08 04:57:32;;;;;;;19.52;8.15;;;6.30;99.90;;;;;;5079365;28;20207;-71
2022/11/08 04:59:58;;;;;;;14.55;8.23;;;6.30;99.90;;;;;;5078202;28;20186;-71
2022/11/08 05:02:23;;;;;;;19.27;8.55;;;6.30;99.90;;;;;;5076352;28;20319;-71
2022/11/08 05:04:49;;;;;;;19.33;8.13;;;6.20;99.90;;;;;;5078614;28;20650;-72
2022/11/08 05:07:14;;;;;;;9.98;7.95;;;6.20;99.90;;;;;;5079112;28;20281;-72
2022/11/08 05:09:40;;;;;;;24.83;8.13;;;6.20;99.90;;;;;;5072348;28;20167;-71
2022/11/08 05:12:06;;;;;;;20.13;9.05;;;6.20;99.90;;;;;;5078213;28;20539;-72
2022/11/08 05:14:31;;;;;;;25.48;7.78;;;6.20;99.90;;;;;;5075332;28;20188;-72
2022/11/08 05:16:58;;;;;;;37.75;8.93;;;6.30;99.90;;;;;;5073962;28;20207;-72
2022/11/08 05:24:52;;;;;;;25.83;8.68;;;6.10;99.90;;;;;;5075982;28;20646;-72
2022/11/08 05:27:19;;;;;;;36.15;10.77;;;6.10;99.90;;;;;;5071315;28;20210;-72
2022/11/08 05:29:44;;;;;;;21.90;7.72;;;6.10;99.90;;;;;;5079638;28;20249;-72
2022/11/08 05:32:10;;;;;;;41.15;9.73;;;6.10;99.90;;;;;;5072646;28;20283;-73
2022/11/08 05:34:35;;;;;;;48.63;9.55;;;6.00;99.90;;;;;;5075818;28;20166;-73
2022/11/08 05:37:01;;;;;;;43.83;9.32;;;6.00;99.90;;;;;;5081959;28;20199;-72
2022/11/08 05:39:27;;;;;;;42.20;9.85;;;5.90;99.90;;;;;;5076810;28;20242;-72
2022/11/08 05:41:52;;;;;;;10.43;7.88;;;5.90;99.90;;;;;;5070049;28;20183;-73
2022/11/08 05:44:18;;;;;;;48.05;9.80;;;6.00;99.90;;;;;;5078235;28;20228;-73
2022/11/08 05:46:43;;;;;;;33.95;9.48;;;5.90;99.90;;;;;;5073998;28;20202;-72
2022/11/08 05:49:09;;;;;;;35.50;8.90;;;6.00;99.90;;;;;;5079444;28;20218;-72
2022/11/08 05:51:35;;;;;;;46.45;10.88;;;6.00;99.90;;;;;;5078019;28;20780;-72
2022/11/08 05:54:00;;;;;;;8.68;7.88;;;5.90;99.90;;;;;;5069435;28;20568;-73
2022/11/08 05:56:26;;;;;;;43.30;10.43;;;5.90;99.90;;;;;;5071908;28;20529;-72
2022/11/08 05:58:51;;;;;;;45.72;9.50;;;5.90;99.90;;;;;;5076402;28;20180;-72
2022/11/08 06:01:18;;;;;;;41.47;10.10;;;5.90;99.90;;;;;;5079239;28;20725;-72
2022/11/08 06:03:45;;;;;;;63.28;10.23;;;5.90;99.90;;;;;;5074611;28;20203;-72
2022/11/08 06:06:13;;;;;;;19.30;8.27;;;5.90;99.90;;;;;;5062955;28;20207;-72
2022/11/08 06:08:40;;;;;;;24.50;9.00;;;5.90;99.90;;;;;;5067934;28;20206;-72
2022/11/08 06:11:08;;;;;;;34.03;8.73;;;5.90;99.90;;;;;;5064445;28;20203;-72
2022/11/08 06:13:34;;;;;;;13.40;7.82;;;5.90;99.90;;;;;;5063512;28;20219;-72
2022/11/08 06:16:05;;;;;;;22.85;8.55;;;6.00;99.90;;;;;;5067781;28;20672;-72
2022/11/08 06:18:32;;;;;;;10.23;7.63;;;6.00;99.90;;;;;;5075221;28;20248;-72
2022/11/08 06:20:58;;;;;;;17.27;9.57;;;6.00;99.90;;;;;;5061814;28;20175;-72
2022/11/08 06:23:24;;;;;;;20.10;8.25;;;6.00;99.90;;;;;;5065407;28;20245;-72
2022/11/08 06:25:50;;;;;;;15.10;8.18;;;5.90;99.90;;;;;;5070319;28;20175;-72
2022/11/08 06:28:15;;;;;;;26.42;9.10;;;5.90;99.90;;;;;;5062625;28;20215;-73
2022/11/08 06:30:41;;;;;;;18.13;8.90;;;5.90;99.90;;;;;;5060661;28;20214;-72
2022/11/08 06:33:07;;;;;;;18.40;8.43;;;5.80;99.90;;;;;;5055851;28;20191;-72
2022/11/08 06:35:32;;;;;;;25.65;8.45;;;5.90;99.90;;;;;;5063222;28;20204;-74
2022/11/08 06:38:00;;;;;;;18.52;9.00;;;5.90;99.90;;;;;;5070524;28;20199;-72
2022/11/08 06:40:26;;;;;;;13.45;8.27;;;5.90;99.90;;;;;;5072318;28;20172;-72
2022/11/08 06:42:52;;;;;;;8.00;7.20;;;5.90;99.90;;;;;;5083598;28;20669;-74
2022/11/08 06:45:18;;;;;;;23.33;8.73;;;6.00;99.90;;;;;;5071022;28;20202;-75
2022/11/08 06:47:44;;;;;;;15.93;7.15;;;6.10;99.90;;;;;;5063466;28;20357;-73
2022/11/08 06:50:09;;;;;;;24.05;7.57;;;6.10;99.90;;;;;;5066785;28;20722;-74
2022/11/08 06:52:35;;;;;;;17.70;8.10;;;6.10;99.90;;;;;;5074708;28;20548;-73
2022/11/08 06:55:00;;;;;;;8.00;7.10;;;6.20;99.90;;;;;;5074089;28;20171;-76
2022/11/08 06:57:26;;;;;;;17.70;7.57;;;6.30;99.90;;;;;;5065150;28;20191;-76
2022/11/08 06:59:51;;;;;;;18.35;7.45;;;6.20;99.90;;;;;;5069678;28;20555;-74
2022/11/08 07:02:17;;;;;;;9.43;6.60;;;6.20;99.90;;;;;;5064606;28;20190;-75
2022/11/08 07:04:43;;;;;;;10.95;7.50;;;6.20;99.90;;;;;;5068789;28;20194;-75
2022/11/08 07:07:08;;;;;;;7.97;6.85;;;6.30;99.90;;;;;;5060081;28;20223;-76
2022/11/08 07:09:34;;;;;;;13.98;7.10;;;6.40;99.90;;;;;;5066473;28;20206;-75
2022/11/08 07:11:59;;;;;;;8.07;7.15;;;6.40;99.90;;;;;;5064833;28;20523;-76
2022/11/08 07:14:25;;;;;;;10.07;6.57;;;6.60;99.90;;;;;;5067590;28;20198;-74
2022/11/08 07:16:50;;;;;;;7.30;6.70;;;6.70;99.90;;;;;;5062051;28;20207;-75
2022/11/08 07:19:16;;;;;;;6.78;6.13;;;6.80;99.90;;;;;;5068104;28;20271;-74
2022/11/08 07:21:42;;;;;;;7.13;6.50;;;6.80;99.90;;;;;;5073858;28;20174;-74
2022/11/08 07:24:07;;;;;;;10.00;7.05;;;6.90;99.90;;;;;;5070369;28;20184;-74
2022/11/08 07:26:33;;;;;;;6.30;5.80;;;6.90;99.90;;;;;;5070193;28;20610;-74
2022/11/08 07:28:58;;;;;;;8.02;6.30;;;7.10;99.90;;;;;;5073903;28;20209;-74
2022/11/08 07:31:24;;;;;;;7.28;6.57;;;7.10;99.90;;;;;;5065397;28;20186;-75
2022/11/08 07:33:50;;;;;;;7.22;6.63;;;7.00;99.90;;;;;;5065622;28;20176;-76
2022/11/08 07:36:16;;;;;;;7.13;6.22;;;6.90;99.90;;;;;;5070220;28;20262;-74
2022/11/08 07:38:41;;;;;;;7.38;6.70;;;7.00;99.90;;;;;;5068409;28;20255;-77
2022/11/08 07:41:08;;;;;;;7.43;6.65;;;6.90;99.90;;;;;;5068413;28;20192;-73
2022/11/08 07:43:34;;;;;;;7.38;6.57;;;6.90;99.90;;;;;;5059376;28;20620;-73
2022/11/08 07:46:00;;;;;;;7.95;6.80;;;6.90;99.90;;;;;;5062402;28;20203;-74
2022/11/08 07:48:28;;;;;;;11.77;7.30;;;6.90;99.90;;;;;;5067856;28;20292;-73
2022/11/08 07:50:54;;;;;;;6.75;6.07;;;7.00;99.90;;;;;;5062209;28;20203;-74
2022/11/08 07:53:20;;;;;;;7.68;6.47;;;6.90;99.90;;;;;;5071787;28;20524;-74
2022/11/08 07:55:49;;;;;;;7.80;6.22;;;7.10;99.90;;;;;;5061435;28;20203;-75
2022/11/08 07:58:15;;;;;;;7.75;7.05;;;7.20;99.90;;;;;;5071438;28;20209;-74
2022/11/08 08:00:42;;;;;;;7.00;6.40;;;7.20;99.90;;;;;;5070503;28;20182;-75
2022/11/08 08:03:10;;;;;;;7.18;6.47;;;7.30;99.90;;;;;;5069276;28;20179;-74
2022/11/08 08:05:38;;;;;;;7.15;6.57;;;7.40;99.90;;;;;;5061501;28;20662;-72
2022/11/08 08:08:04;;;;;;;7.20;6.50;;;7.60;99.90;;;;;;5073256;28;20206;-72
2022/11/08 08:10:31;;;;;;;7.05;6.45;;;7.70;99.90;;;;;;5064577;28;20221;-75
2022/11/08 08:12:57;;;;;;;9.23;6.75;;;8.00;99.90;;;;;;5066993;28;20683;-74
2022/11/08 08:15:24;;;;;;;7.85;7.15;;;8.10;99.90;;;;;;5075966;28;20175;-74
2022/11/08 08:17:49;;;;;;;7.47;6.75;;;8.10;99.90;;;;;;5065020;28;20222;-73
2022/11/08 08:20:15;;;;;;;8.63;7.10;;;8.00;99.90;;;;;;5061917;28;20262;-73
2022/11/08 08:22:48;;;;;;;7.43;6.75;;;8.20;99.90;;;;;;5086995;28;20186;-74
2022/11/08 08:25:14;;;;;;;6.80;6.20;;;8.40;99.90;;;;;;5087732;28;20174;-74
2022/11/08 08:27:46;;;;;;;7.15;6.55;;;8.60;99.90;;;;;;5082625;28;20590;-75
2022/11/08 08:30:11;;;;;;;7.93;7.15;;;8.70;99.90;;;;;;5066285;28;20187;-74
2022/11/08 08:32:37;;;;;;;7.63;6.93;;;8.80;99.90;;;;;;5080261;28;20175;-75
2022/11/08 08:35:03;;;;;;;6.93;6.43;;;9.00;99.90;;;;;;5076169;28;20184;-75
2022/11/08 08:37:28;;;;;;;7.07;6.47;;;9.30;99.90;;;;;;5084434;28;20201;-74
2022/11/08 08:39:54;;;;;;;7.22;6.63;;;9.50;99.90;;;;;;5075860;28;20257;-74
2022/11/08 08:42:19;;;;;;;7.88;7.07;;;9.50;99.90;;;;;;5081729;28;20332;-74
2022/11/08 08:44:45;;;;;;;6.85;6.25;;;9.80;99.90;;;;;;5069997;28;20191;-75
2022/11/08 08:47:11;;;;;;;6.55;5.60;;;10.20;99.90;;;;;;5073517;28;20214;-74
2022/11/08 08:49:36;;;;;;;6.88;6.35;;;10.30;99.90;;;;;;5074391;28;20180;-74
2022/11/08 08:52:02;;;;;;;6.72;6.22;;;10.20;99.90;;;;;;5078298;28;20176;-73
2022/11/08 08:54:27;;;;;;;6.40;5.80;;;10.10;99.90;;;;;;5074352;28;20210;-74
2022/11/08 08:56:53;;;;;;;6.03;5.53;;;10.10;99.90;;;;;;5083720;28;20199;-79
2022/11/08 08:59:18;;;;;;;6.00;5.50;;;10.20;99.90;;;;;;5066111;28;20183;-74
2022/11/08 09:01:44;;;;;;;6.55;6.00;;;10.20;99.90;;;;;;5069055;28;20193;-74
2022/11/08 09:04:10;;;;;;;9.20;6.22;;;10.10;99.90;;;;;;5060890;28;20245;-73
2022/11/08 09:06:35;;;;;;;6.32;5.82;;;10.30;99.90;;;;;;5066261;28;20238;-75
2022/11/08 09:09:01;;;;;;;6.88;6.28;;;10.70;99.90;;;;;;5069563;28;20237;-73
2022/11/08 09:11:26;;;;;;;7.88;6.30;;;10.80;99.90;;;;;;5072443;28;20175;-73
2022/11/08 09:13:52;;;;;;;7.35;6.75;;;10.90;99.90;;;;;;5072391;28;20186;-73
2022/11/08 09:16:18;;;;;;;7.60;6.90;;;11.30;99.90;;;;;;5078456;28;20182;-78
2022/11/08 09:18:44;;;;;;;7.85;7.15;;;11.60;99.90;;;;;;5069092;28;20196;-77
2022/11/08 09:21:09;;;;;;;7.63;6.93;;;11.90;99.90;;;;;;5075301;28;20703;-73
2022/11/08 09:23:35;;;;;;;7.78;7.18;;;12.30;99.90;;;;;;5072128;28;20588;-73
2022/11/08 09:26:04;;;;;;;7.82;7.13;;;12.80;99.90;;;;;;5072441;28;20751;-74
2022/11/08 09:28:31;;;;;;;8.02;7.22;;;13.90;99.90;;;;;;5071328;28;20203;-76
2022/11/08 09:31:04;;;;;;;9.73;7.55;;;14.40;99.90;;;;;;5067116;28;20175;-74
2022/11/08 09:33:30;;;;;;;7.97;7.22;;;14.30;99.90;;;;;;5070938;28;20176;-73
2022/11/08 09:35:59;;;;;;;8.57;7.78;;;14.00;99.90;;;;;;5066572;28;20255;-76
2022/11/08 09:38:24;;;;;;;9.07;8.27;;;13.60;99.90;;;;;;5075634;28;20202;-74
2022/11/08 09:40:53;;;;;;;8.75;7.95;;;13.30;99.90;;;;;;5077142;28;20367;-74
2022/11/08 09:43:46;;;;;;;9.13;8.23;;;13.10;99.90;;;;;;5070710;28;20202;-73
2022/11/08 09:46:31;;;;;;;9.05;8.18;;;13.20;99.90;;;;;;5071254;28;20199;-79
2022/11/08 09:49:00;;;;;;;9.18;8.32;;;13.40;99.90;;;;;;5082463;28;20178;-73
2022/11/08 09:51:27;;;;;;;8.48;7.53;;;13.90;99.90;;;;;;5079653;28;20640;-75
2022/11/08 09:53:58;;;;;;;7.85;7.15;;;14.90;99.90;;;;;;5072767;28;20291;-76
2022/11/08 09:56:28;;;;;;;8.25;7.45;;;16.50;99.90;;;;;;5071222;28;20258;-75
2022/11/08 09:59:16;;;;;;;8.18;7.38;;;18.10;99.90;;;;;;5074567;28;20175;-73
2022/11/08 10:01:42;;;;;;;7.55;6.85;;;20.00;99.90;;;;;;5077183;28;20183;-73
2022/11/08 10:04:14;;;;;;;7.50;6.85;;;21.80;98.80;;;;;;5068104;28;20244;-74
2022/11/08 10:06:50;;;;;;;7.78;7.07;;;22.80;92.60;;;;;;5066097;28;20275;-74
2022/11/08 10:09:34;;;;;;;6.97;6.43;;;21.70;91.80;;;;;;5066879;28;20189;-75
2022/11/08 10:12:40;;;;;;;7.38;6.82;;;20.70;93.60;;;;;;5073120;28;20179;-74
2022/11/08 10:15:21;;;;;;;19.27;7.85;;;20.20;94.10;;;;;;5072740;28;20176;-74
2022/11/08 10:18:11;;;;;;;13.45;7.22;;;20.30;95.00;;;;;;5077113;28;20193;-73
2022/11/08 10:21:00;;;;;;;8.70;6.70;;;21.80;93.50;;;;;;5067332;28;20596;-74
2022/11/08 10:24:00;;;;;;;8.07;7.28;;;23.70;89.70;;;;;;5075624;28;20224;-74
2022/11/08 10:26:34;;;;;;;8.27;6.97;;;25.40;82.60;;;;;;5073612;28;20566;-73
2022/11/08 10:29:06;;;;;;;8.38;6.75;;;26.50;75.40;;;;;;5069909;28;20172;-74
2022/11/08 10:31:37;;;;;;;6.43;5.93;;;27.70;71.60;;;;;;5077749;28;20262;-75
2022/11/08 10:34:11;;;;;;;7.20;6.50;;;29.10;65.70;;;;;;5066798;28;20187;-73
2022/11/08 10:36:40;;;;;;;6.30;5.30;;;29.70;61.80;;;;;;5069133;28;20187;-72
2022/11/08 10:39:28;;;;;;;6.53;5.93;;;29.30;59.20;;;;;;5073698;28;20172;-74
2022/11/08 10:42:34;;;;;;;6.88;5.45;;;27.20;62.20;;;;;;5067565;28;20200;-76
2022/11/08 10:44:59;;;;;;;6.50;5.90;;;25.80;65.80;;;;;;5070879;28;20202;-73
2022/11/08 10:47:28;;;;;;;6.32;5.82;;;25.20;68.40;;;;;;5071306;28;20213;-73
2022/11/08 10:49:54;;;;;;;5.50;5.10;;;25.10;69.10;;;;;;5075099;28;20178;-73
2022/11/08 10:52:41;;;;;;;6.07;5.63;;;25.80;67.90;;;;;;5069022;28;20177;-75
2022/11/08 10:55:45;;;;;;;6.78;6.18;;;26.50;66.80;;;;;;5072019;28;20167;-76
2022/11/08 10:58:31;;;;;;;6.15;5.60;;;26.80;65.00;;;;;;5063553;28;20284;-81
2022/11/08 11:01:02;;;;;;;8.43;5.35;;;28.30;62.10;;;;;;5072662;28;20182;-74
2022/11/08 11:03:29;;;;;;;4.88;4.53;;;29.40;59.60;;;;;;5073274;28;20211;-73
2022/11/08 11:06:18;;;;;;;5.65;5.15;;;30.20;56.70;;;;;;5074221;28;20741;-76
2022/11/08 11:08:50;;;;;;;5.57;5.18;;;29.20;57.40;;;;;;5065694;28;20566;-73
2022/11/08 11:11:35;;;;;;;7.38;4.90;;;28.80;58.60;;;;;;5072285;28;20221;-74
2022/11/08 11:14:12;;;;;;;5.13;4.82;;;29.40;58.00;;;;;;5075625;28;20255;-74
2022/11/08 11:17:06;;;;;;;4.45;4.13;;;30.60;55.50;;;;;;5064527;28;20174;-74
2022/11/08 11:19:33;;;;;;;5.03;4.60;;;31.10;54.30;;;;;;5061661;28;20270;-72
2022/11/08 11:22:07;;;;;;;5.30;4.90;;;31.50;53.80;;;;;;5061619;28;20187;-73
2022/11/08 11:24:45;;;;;;;4.63;4.25;;;31.60;53.10;;;;;;5056587;28;20174;-72
2022/11/08 11:27:30;;;;;;;4.10;3.80;;;32.20;52.30;;;;;;5062149;28;20210;-72
2022/11/08 11:30:21;;;;;;;4.95;4.53;;;32.40;51.20;;;;;;5065149;28;20666;-76
2022/11/08 11:33:03;;;;;;;4.60;4.03;;;33.00;50.80;;;;;;5066088;28;20197;-80
2022/11/08 11:35:49;;;;;;;4.60;4.20;;;33.60;49.70;;;;;;5070170;28;20174;-79
2022/11/08 11:38:33;;;;;;;4.38;4.05;;;33.20;49.50;;;;;;5065634;28;20224;-79
2022/11/08 11:41:05;;;;;;;4.20;3.90;;;32.90;50.10;;;;;;5063728;28;20171;-79
2022/11/08 11:43:43;;;;;;;4.43;4.03;;;33.20;49.00;;;;;;5069970;28;20167;-79
2022/11/08 11:46:18;;;;;;;4.70;4.30;;;33.30;48.70;;;;;;5066180;28;20719;-79
2022/11/08 11:48:58;;;;;;;5.35;4.22;;;33.50;48.40;;;;;;5073548;28;20565;-79
2022/11/08 11:51:27;;;;;;;4.57;4.18;;;33.00;48.70;;;;;;5078074;28;20193;-77
2022/11/08 11:53:53;;;;;;;5.07;4.65;;;32.40;49.40;;;;;;5063187;28;20199;-73
2022/11/08 11:56:42;;;;;;;4.00;3.70;;;32.70;49.10;;;;;;5066444;28;20236;-75
2022/11/08 11:59:28;;;;;;;3.83;3.50;;;32.80;48.90;;;;;;5068292;28;20663;-77
2022/11/08 12:02:00;;;;;;;4.13;3.75;;;32.60;49.10;;;;;;5065440;28;20842;-76
2022/11/08 12:04:45;;;;;;;3.63;3.42;;;32.70;49.40;;;;;;5067693;28;20262;-76
2022/11/08 12:07:19;;;;;;;3.90;3.63;;;32.80;48.90;;;;;;5064777;28;20220;-76
2022/11/08 12:09:57;;;;;;;3.92;3.70;;;32.60;49.10;;;;;;5063027;28;20175;-74
2022/11/08 12:12:31;;;;;;;3.80;3.60;;;32.20;49.10;;;;;;5062917;28;20246;-74
2022/11/08 12:15:02;;;;;;;4.38;3.97;;;31.40;50.10;;;;;;5062384;28;20174;-74
2022/11/08 12:17:49;;;;;;;4.25;3.88;;;30.70;51.60;;;;;;5062455;28;20213;-75
2022/11/08 12:20:17;;;;;;;4.20;3.80;;;30.70;52.00;;;;;;5060649;28;20190;-75
2022/11/08 12:23:02;;;;;;;4.32;3.92;;;30.20;52.20;;;;;;5060473;28;20185;-75
2022/11/08 12:25:52;;;;;;;4.20;3.80;;;29.70;53.10;;;;;;5063368;28;20186;-75
2022/11/08 12:28:29;;;;;;;3.60;3.30;;;29.00;53.90;;;;;;5063490;28;20281;-74
2022/11/08 12:31:18;;;;;;;4.13;3.72;;;28.90;54.20;;;;;;5062260;28;20209;-75
2022/11/08 12:34:04;;;;;;;3.47;3.17;;;28.80;54.50;;;;;;5059383;28;20187;-75
2022/11/08 12:36:43;;;;;;;4.28;3.78;;;28.80;54.70;;;;;;5061698;28;20614;-75
2022/11/08 12:39:23;;;;;;;6.85;3.25;;;29.00;54.00;;;;;;5065203;28;20187;-75
2022/11/08 12:42:22;;;;;;;3.83;3.47;;;28.90;54.30;;;;;;5058837;28;20262;-75
2022/11/08 12:44:54;;;;;;;3.80;3.50;;;28.40;55.30;;;;;;5062446;28;20195;-76
2022/11/08 12:48:00;;;;;;;4.15;3.67;;;28.20;55.70;;;;;;5063252;28;20209;-75
2022/11/08 12:50:37;;;;;;;3.53;3.22;;;28.20;56.20;;;;;;5049427;28;20240;-76
2022/11/08 12:53:23;;;;;;;3.42;3.10;;;27.90;56.20;;;;;;5065568;28;20174;-76
2022/11/08 12:55:53;;;;;;;3.33;3.13;;;27.50;56.70;;;;;;5061840;28;20208;-75
2022/11/08 12:58:32;;;;;;;3.30;3.10;;;27.10;57.00;;;;;;5064159;28;20720;-76
2022/11/08 13:01:04;;;;;;;3.50;3.25;;;25.80;58.90;;;;;;5067315;28;20191;-76
2022/11/08 13:03:50;;;;;;;3.58;3.30;;;24.60;61.80;;;;;;5069014;28;20175;-75
2022/11/08 13:06:34;;;;;;;3.65;3.35;;;23.80;63.80;;;;;;5061065;28;20689;-76
2022/11/08 13:09:21;;;;;;;3.60;3.25;;;23.70;65.10;;;;;;5079805;28;20172;-76
2022/11/08 13:12:05;;;;;;;4.43;3.30;;;24.00;64.70;;;;;;5063143;28;20176;-75
2022/11/08 13:14:32;;;;;;;3.25;3.05;;;24.10;65.20;;;;;;5058336;28;20180;-75
2022/11/08 13:17:23;;;;;;;3.10;2.90;;;23.90;65.00;;;;;;5069460;28;20227;-75
2022/11/08 13:19:55;;;;;;;4.10;3.28;;;23.90;64.90;;;;;;5060013;28;20180;-75
2022/11/08 13:22:32;;;;;;;3.55;3.30;;;24.10;64.70;;;;;;5061649;28;20179;-76
2022/11/08 13:25:00;;;;;;;2.78;2.58;;;23.90;64.60;;;;;;5067280;28;20258;-75
2022/11/08 13:27:37;;;;;;;3.60;3.30;;;23.90;65.30;;;;;;5067668;28;20210;-75
2022/11/08 13:30:23;;;;;;;4.15;3.00;;;23.90;64.50;;;;;;5063167;28;20184;-76